createdAt,value
2022-10-22T00:01:00.370Z,12.93
2022-10-22T00:03:27.083Z,12.94
2022-10-22T00:05:53.609Z,12.96
2022-10-22T00:08:20.051Z,12.92
2022-10-22T00:10:46.447Z,12.87
2022-10-22T00:13:13.165Z,12.87
2022-10-22T00:15:39.594Z,12.90
2022-10-22T00:18:05.960Z,12.82
2022-10-22T00:20:34.706Z,12.89
2022-10-22T00:23:01.063Z,12.86
2022-10-22T00:25:27.483Z,12.85
2022-10-22T00:27:53.918Z,12.76
2022-10-22T00:30:20.251Z,12.77
2022-10-22T00:32:46.665Z,12.73
2022-10-22T00:35:13.402Z,12.76
2022-10-22T00:37:39.775Z,12.66
2022-10-22T00:40:06.482Z,12.59
2022-10-22T00:42:32.896Z,12.63
2022-10-22T00:45:15.800Z,12.67
2022-10-22T00:47:42.132Z,12.75
2022-10-22T00:50:12.938Z,12.71
2022-10-22T00:52:39.943Z,12.64
2022-10-22T00:55:07.026Z,12.70
2022-10-22T00:57:34.725Z,12.65
2022-10-22T01:00:01.140Z,12.61
2022-10-22T01:02:27.735Z,12.64
2022-10-22T01:04:54.035Z,12.60
2022-10-22T01:07:24.532Z,12.62
2022-10-22T01:09:50.813Z,12.61
2022-10-22T01:12:32.376Z,12.63
2022-10-22T01:15:07.882Z,12.62
2022-10-22T01:17:40.084Z,12.67
2022-10-22T01:20:12.567Z,12.66
2022-10-22T01:22:41.961Z,12.60
2022-10-22T01:25:12.175Z,12.61
2022-10-22T01:27:53.130Z,12.67
2022-10-22T01:30:20.177Z,12.59
2022-10-22T01:32:50.008Z,12.55
2022-10-22T01:35:19.136Z,12.52
2022-10-22T01:37:50.772Z,12.57
2022-10-22T01:40:18.260Z,12.59
2022-10-22T01:42:54.248Z,12.56
2022-10-22T01:45:21.155Z,12.60
2022-10-22T01:47:50.455Z,12.62
2022-10-22T01:50:23.557Z,12.61
2022-10-22T01:52:49.882Z,12.60
2022-10-22T01:55:25.356Z,12.59
2022-10-22T01:58:10.129Z,12.58
2022-10-22T02:00:39.727Z,12.65
2022-10-22T02:03:10.830Z,12.77
2022-10-22T02:05:46.038Z,12.66
2022-10-22T02:08:15.648Z,12.66
2022-10-22T02:10:43.631Z,12.68
2022-10-22T02:13:12.340Z,12.72
2022-10-22T02:15:39.448Z,12.62
2022-10-22T02:18:09.172Z,12.62
2022-10-22T02:20:38.640Z,12.62
2022-10-22T02:23:05.126Z,12.60
2022-10-22T02:25:35.075Z,12.57
2022-10-22T02:28:07.404Z,12.54
2022-10-22T02:30:35.901Z,12.57
2022-10-22T02:33:20.710Z,12.56
2022-10-22T02:35:48.717Z,12.58
2022-10-22T02:38:15.240Z,12.54
2022-10-22T02:40:41.673Z,12.56
2022-10-22T02:43:08.101Z,12.55
2022-10-22T02:45:36.786Z,12.49
2022-10-22T02:48:03.161Z,12.51
2022-10-22T02:50:29.514Z,12.51
2022-10-22T02:52:55.907Z,12.54
2022-10-22T02:55:22.517Z,12.55
2022-10-22T02:57:48.822Z,12.59
2022-10-22T03:00:15.720Z,12.65
2022-10-22T03:02:42.029Z,12.59
2022-10-22T03:05:08.654Z,12.61
2022-10-22T03:07:35.290Z,12.66
2022-10-22T03:10:01.617Z,12.70
2022-10-22T03:12:27.937Z,12.74
2022-10-22T03:14:54.221Z,12.67
2022-10-22T03:17:20.580Z,12.71
2022-10-22T03:19:49.375Z,12.66
2022-10-22T03:22:19.137Z,12.79
2022-10-22T03:24:48.576Z,12.83
2022-10-22T03:27:16.263Z,12.99
2022-10-22T03:29:42.821Z,12.99
2022-10-22T03:32:09.241Z,12.92
2022-10-22T03:34:35.557Z,12.98
2022-10-22T03:37:02.204Z,13.06
2022-10-22T03:39:31.326Z,13.03
2022-10-22T03:41:57.901Z,13.04
2022-10-22T03:44:24.655Z,13.05
2022-10-22T03:46:50.970Z,13.09
2022-10-22T03:49:17.302Z,13.13
2022-10-22T03:51:43.802Z,13.16
2022-10-22T03:54:10.153Z,13.15
2022-10-22T03:56:36.461Z,13.18
2022-10-22T03:59:03.598Z,13.19
2022-10-22T04:01:32.438Z,13.22
2022-10-22T04:03:59.809Z,13.23
2022-10-22T04:06:26.111Z,13.24
2022-10-22T04:08:52.524Z,13.30
2022-10-22T04:11:18.968Z,13.28
2022-10-22T04:13:45.270Z,13.20
2022-10-22T04:16:13.190Z,13.21
2022-10-22T04:18:40.455Z,13.17
2022-10-22T04:21:07.791Z,13.25
2022-10-22T04:23:34.167Z,13.20
2022-10-22T04:26:01.732Z,13.19
2022-10-22T04:28:28.073Z,13.22
2022-10-22T04:30:54.414Z,13.23
2022-10-22T04:33:21.148Z,13.23
2022-10-22T04:35:47.572Z,13.25
2022-10-22T04:38:13.946Z,13.26
2022-10-22T04:40:40.287Z,13.29
2022-10-22T04:43:06.625Z,13.26
2022-10-22T04:45:33.506Z,13.27
2022-10-22T04:47:59.875Z,13.30
2022-10-22T04:50:26.395Z,13.33
2022-10-22T04:52:52.794Z,13.33
2022-10-22T04:55:19.222Z,13.34
2022-10-22T04:57:48.102Z,13.33
2022-10-22T05:00:16.588Z,13.27
2022-10-22T05:02:44.694Z,13.24
2022-10-22T05:05:11.977Z,13.33
2022-10-22T05:07:38.655Z,13.43
2022-10-22T05:10:05.574Z,13.46
2022-10-22T05:12:35.102Z,13.50
2022-10-22T05:15:01.746Z,13.62
2022-10-22T05:17:28.095Z,13.63
2022-10-22T05:19:54.398Z,13.69
2022-10-22T05:22:20.806Z,13.71
2022-10-22T05:24:49.007Z,13.72
2022-10-22T05:27:15.408Z,13.80
2022-10-22T05:29:41.805Z,13.80
2022-10-22T05:32:08.214Z,13.83
2022-10-22T05:34:36.110Z,13.88
2022-10-22T05:37:02.529Z,13.87
2022-10-22T05:39:28.952Z,13.95
2022-10-22T05:41:55.375Z,13.96
2022-10-22T05:44:22.013Z,13.92
2022-10-22T05:46:48.402Z,13.89
2022-10-22T05:49:15.444Z,13.81
2022-10-22T05:51:41.881Z,13.79
2022-10-22T05:54:08.697Z,13.86
2022-10-22T05:56:35.519Z,13.82
2022-10-22T06:01:31.421Z,13.91
2022-10-22T06:03:59.064Z,13.94
2022-10-22T06:06:37.093Z,13.94
2022-10-22T06:09:12.371Z,14.00
2022-10-22T06:11:38.806Z,14.02
2022-10-22T06:14:05.196Z,14.04
2022-10-22T06:16:31.898Z,14.07
2022-10-22T06:19:02.110Z,14.09
2022-10-22T06:21:29.178Z,14.09
2022-10-22T06:23:56.152Z,14.06
2022-10-22T06:26:22.487Z,14.12
2022-10-22T06:28:48.804Z,14.09
2022-10-22T06:31:15.195Z,14.09
2022-10-22T06:33:44.255Z,14.11
2022-10-22T06:36:18.110Z,14.10
2022-10-22T06:38:44.503Z,14.14
2022-10-22T06:41:12.637Z,14.09
2022-10-22T06:43:39.549Z,14.06
2022-10-22T06:46:07.398Z,14.09
2022-10-22T06:48:37.809Z,14.08
2022-10-22T06:51:05.711Z,14.14
2022-10-22T06:53:32.374Z,14.14
2022-10-22T06:55:58.744Z,14.12
2022-10-22T06:58:25.158Z,14.17
2022-10-22T07:01:00.313Z,14.16
2022-10-22T07:03:26.789Z,14.18
2022-10-22T07:05:53.135Z,14.20
2022-10-22T07:08:19.509Z,14.21
2022-10-22T07:10:45.862Z,14.23
2022-10-22T07:13:12.276Z,14.29
2022-10-22T07:15:38.638Z,14.24
2022-10-22T07:18:05.103Z,14.35
2022-10-22T07:20:31.483Z,14.56
2022-10-22T07:22:57.832Z,14.52
2022-10-22T07:25:24.247Z,14.45
2022-10-22T07:27:50.638Z,14.34
2022-10-22T07:30:17.092Z,14.36
2022-10-22T07:32:43.461Z,14.30
2022-10-22T07:35:09.869Z,14.46
2022-10-22T07:37:36.186Z,14.35
2022-10-22T07:40:03.941Z,14.30
2022-10-22T07:45:02.189Z,14.39
2022-10-22T07:47:28.594Z,14.48
2022-10-22T07:49:54.904Z,14.52
2022-10-22T07:52:21.509Z,14.58
2022-10-22T07:54:47.864Z,14.65
2022-10-22T07:57:14.326Z,14.61
2022-10-22T07:59:40.645Z,14.58
2022-10-22T08:02:07.079Z,14.60
2022-10-22T08:04:33.439Z,14.56
2022-10-22T08:07:00.482Z,14.54
2022-10-22T08:09:29.114Z,14.50
2022-10-22T08:11:55.545Z,14.43
2022-10-22T08:14:21.883Z,14.47
2022-10-22T08:16:48.441Z,14.47
2022-10-22T08:19:18.739Z,14.42
2022-10-22T08:21:46.035Z,14.42
2022-10-22T08:24:12.813Z,14.41
2022-10-22T08:26:39.451Z,14.40
2022-10-22T08:29:06.021Z,14.41
2022-10-22T08:31:32.461Z,14.46
2022-10-22T08:33:58.863Z,14.46
2022-10-22T08:36:25.280Z,14.47
2022-10-22T08:38:51.722Z,14.45
2022-10-22T08:41:19.712Z,14.38
2022-10-22T08:43:46.063Z,14.38
2022-10-22T08:46:18.475Z,14.31
2022-10-22T08:48:53.849Z,14.35
2022-10-22T08:51:25.723Z,14.31
2022-10-22T08:54:01.453Z,14.39
2022-10-22T08:56:28.922Z,14.43
2022-10-22T08:59:06.073Z,14.41
2022-10-22T09:01:34.610Z,14.46
2022-10-22T09:04:05.742Z,14.45
2022-10-22T09:06:33.215Z,14.48
2022-10-22T09:09:01.131Z,14.49
2022-10-22T09:11:32.018Z,14.54
2022-10-22T09:13:59.532Z,14.55
2022-10-22T09:16:31.893Z,14.55
2022-10-22T09:19:04.619Z,14.59
2022-10-22T09:21:30.953Z,14.68
2022-10-22T09:24:04.348Z,14.67
2022-10-22T09:26:32.040Z,14.69
2022-10-22T09:29:00.110Z,14.67
2022-10-22T09:31:27.045Z,14.70
2022-10-22T09:33:53.449Z,14.67
2022-10-22T09:36:22.333Z,14.67
2022-10-22T09:38:52.759Z,14.68
2022-10-22T09:41:20.542Z,14.70
2022-10-22T09:43:47.756Z,14.70
2022-10-22T09:46:17.059Z,14.72
2022-10-22T09:48:47.443Z,14.69
2022-10-22T09:51:13.842Z,14.68
2022-10-22T09:53:45.008Z,14.67
2022-10-22T09:56:17.503Z,14.69
2022-10-22T09:58:45.041Z,14.69
2022-10-22T10:01:17.957Z,14.76
2022-10-22T10:03:44.343Z,14.92
2022-10-22T10:06:12.443Z,14.93
2022-10-22T10:08:38.862Z,14.90
2022-10-22T10:11:12.230Z,14.92
2022-10-22T10:13:38.712Z,14.90
2022-10-22T10:16:08.599Z,14.87
2022-10-22T10:18:53.711Z,14.94
2022-10-22T10:21:26.160Z,14.87
2022-10-22T10:23:52.492Z,14.95
2022-10-22T10:26:27.018Z,14.98
2022-10-22T10:29:10.911Z,14.95
2022-10-22T10:31:55.891Z,14.89
2022-10-22T10:34:31.437Z,14.99
2022-10-22T10:37:17.277Z,15.06
2022-10-22T10:39:43.587Z,14.96
2022-10-22T10:42:28.337Z,15.01
2022-10-22T10:45:02.584Z,15.03
2022-10-22T10:47:35.084Z,15.07
2022-10-22T10:50:20.438Z,15.20
2022-10-22T10:53:07.015Z,15.21
2022-10-22T10:55:41.920Z,15.28
2022-10-22T10:58:14.408Z,15.41
2022-10-22T11:01:07.205Z,15.55
2022-10-22T11:03:52.475Z,15.72
2022-10-22T11:06:25.361Z,15.70
2022-10-22T11:08:57.788Z,15.89
2022-10-22T11:11:31.523Z,15.87
2022-10-22T11:14:02.035Z,15.99
2022-10-22T11:16:44.945Z,16.01
2022-10-22T11:19:22.696Z,16.10
2022-10-22T11:22:12.194Z,16.11
2022-10-22T11:24:50.637Z,16.23
2022-10-22T11:27:32.285Z,16.26
2022-10-22T11:30:01.768Z,16.43
2022-10-22T11:32:28.320Z,16.49
2022-10-22T11:34:56.019Z,16.68
2022-10-22T11:37:24.631Z,16.90
2022-10-22T11:39:53.620Z,16.94
2022-10-22T11:42:24.913Z,16.93
2022-10-22T11:45:03.154Z,16.97
2022-10-22T11:47:32.924Z,17.14
2022-10-22T11:50:16.575Z,16.98
2022-10-22T11:52:50.087Z,16.96
2022-10-22T11:55:35.061Z,17.33
2022-10-22T11:58:02.228Z,17.47
2022-10-22T12:00:35.611Z,17.65
2022-10-22T12:03:16.069Z,17.71
2022-10-22T12:05:43.268Z,17.42
2022-10-22T12:08:13.448Z,17.39
2022-10-22T12:10:57.394Z,17.21
2022-10-22T12:13:25.088Z,17.37
2022-10-22T12:15:53.355Z,17.48
2022-10-22T12:18:23.410Z,17.66
2022-10-22T12:20:50.946Z,17.84
2022-10-22T12:23:17.377Z,17.77
2022-10-22T12:25:43.818Z,17.94
2022-10-22T12:28:12.158Z,17.84
2022-10-22T12:30:38.850Z,18.13
2022-10-22T12:33:06.650Z,18.20
2022-10-22T12:35:35.632Z,18.11
2022-10-22T12:38:02.918Z,17.93
2022-10-22T12:40:30.472Z,17.89
2022-10-22T12:43:00.777Z,17.84
2022-10-22T12:45:28.509Z,17.91
2022-10-22T12:47:58.998Z,18.17
2022-10-22T12:50:31.246Z,18.05
2022-10-22T12:52:57.602Z,18.00
2022-10-22T12:55:27.838Z,17.85
2022-10-22T12:57:54.197Z,17.64
2022-10-22T13:00:21.927Z,17.63
2022-10-22T13:02:48.410Z,17.61
2022-10-22T13:05:17.872Z,17.64
2022-10-22T13:07:46.832Z,17.59
2022-10-22T13:10:21.628Z,17.49
2022-10-22T13:12:53.905Z,17.61
2022-10-22T13:15:22.172Z,17.51
2022-10-22T13:17:49.793Z,17.38
2022-10-22T13:20:18.384Z,17.42
2022-10-22T13:23:02.638Z,17.38
2022-10-22T13:25:30.081Z,17.43
2022-10-22T13:27:59.602Z,17.45
2022-10-22T13:30:28.001Z,17.52
2022-10-22T13:33:05.589Z,17.70
2022-10-22T13:35:33.929Z,17.71
2022-10-22T13:38:03.684Z,17.67
2022-10-22T13:40:30.098Z,17.56
2022-10-22T13:42:56.431Z,17.42
2022-10-22T13:45:23.448Z,17.26
2022-10-22T13:47:51.953Z,17.50
2022-10-22T13:50:19.299Z,17.43
2022-10-22T13:52:47.710Z,17.45
2022-10-22T13:55:15.709Z,17.44
2022-10-22T13:57:42.124Z,17.44
2022-10-22T14:00:11.477Z,17.51
2022-10-22T14:02:37.800Z,17.68
2022-10-22T14:05:08.486Z,17.75
2022-10-22T14:07:35.603Z,17.78
2022-10-22T14:10:02.313Z,17.75
2022-10-22T14:12:28.747Z,17.65
2022-10-22T14:14:55.090Z,17.67
2022-10-22T14:17:21.438Z,17.65
2022-10-22T14:19:49.162Z,17.57
2022-10-22T14:22:17.145Z,17.53
2022-10-22T14:24:43.560Z,17.37
2022-10-22T14:27:13.929Z,17.52
2022-10-22T14:29:40.708Z,17.44
2022-10-22T14:32:12.498Z,17.39
2022-10-22T14:34:38.884Z,17.30
2022-10-22T14:37:05.255Z,17.31
2022-10-22T14:39:31.718Z,17.38
2022-10-22T14:41:58.052Z,17.34
2022-10-22T14:44:24.400Z,17.27
2022-10-22T14:46:54.247Z,17.17
2022-10-22T14:49:20.571Z,17.27
2022-10-22T14:51:47.233Z,17.32
2022-10-22T14:54:13.604Z,17.24
2022-10-22T14:56:39.979Z,17.44
2022-10-22T14:59:06.307Z,17.55
2022-10-22T15:01:35.375Z,17.55
2022-10-22T15:04:01.796Z,17.29
2022-10-22T15:06:28.110Z,17.24
2022-10-22T15:08:54.603Z,17.10
2022-10-22T15:11:22.343Z,16.74
2022-10-22T15:13:48.707Z,16.97
2022-10-22T15:16:15.830Z,17.03
2022-10-22T15:18:42.148Z,17.06
2022-10-22T15:21:15.379Z,17.09
2022-10-22T15:23:42.013Z,17.09
2022-10-22T15:26:08.842Z,17.07
2022-10-22T15:28:35.993Z,16.99
2022-10-22T15:31:02.770Z,16.84
2022-10-22T15:33:29.665Z,16.61
2022-10-22T15:35:56.575Z,16.46
2022-10-22T15:41:06.076Z,16.41
2022-10-22T15:43:32.783Z,16.31
2022-10-22T15:46:09.804Z,16.14
2022-10-22T15:48:36.227Z,16.10
2022-10-22T15:51:07.318Z,15.96
2022-10-22T15:53:33.648Z,15.85
2022-10-22T15:56:00.013Z,15.86
2022-10-22T15:58:28.586Z,15.72
2022-10-22T16:00:54.968Z,15.56
2022-10-22T16:03:21.367Z,15.43
2022-10-22T16:05:54.483Z,15.17
2022-10-22T16:08:21.250Z,14.96
2022-10-22T16:10:48.510Z,15.00
2022-10-22T16:13:15.103Z,15.05
2022-10-22T16:15:43.914Z,14.91
2022-10-22T16:18:12.627Z,14.83
2022-10-22T16:20:39.790Z,14.75
2022-10-22T16:23:06.175Z,14.74
2022-10-22T16:25:39.156Z,14.47
2022-10-22T16:28:05.579Z,14.43
2022-10-22T16:30:35.879Z,14.35
2022-10-22T16:33:06.213Z,14.10
2022-10-22T16:35:32.810Z,14.19
2022-10-22T16:38:01.577Z,14.16
2022-10-22T16:40:31.795Z,14.25
2022-10-22T16:42:58.234Z,14.14
2022-10-22T16:45:24.591Z,14.11
2022-10-22T16:47:51.081Z,14.04
2022-10-22T16:50:19.839Z,14.00
2022-10-22T16:52:48.755Z,13.89
2022-10-22T16:55:17.612Z,13.97
2022-10-22T16:57:44.256Z,13.96
2022-10-22T17:00:13.683Z,13.94
2022-10-22T17:02:40.402Z,13.93
2022-10-22T17:05:07.242Z,13.84
2022-10-22T17:07:33.649Z,13.87
2022-10-22T17:10:01.169Z,13.80
2022-10-22T17:12:27.534Z,13.75
2022-10-22T17:14:53.884Z,13.66
2022-10-22T17:17:22.712Z,13.56
2022-10-22T17:19:49.199Z,13.21
2022-10-22T17:22:17.697Z,13.02
2022-10-22T17:24:44.856Z,12.99
2022-10-22T17:27:11.205Z,13.03
2022-10-22T17:29:39.964Z,13.07
2022-10-22T17:32:06.341Z,13.01
2022-10-22T17:34:33.288Z,12.92
2022-10-22T17:37:00.285Z,12.99
2022-10-22T17:39:26.922Z,12.99
2022-10-22T17:41:53.280Z,12.84
2022-10-22T17:44:19.658Z,12.82
2022-10-22T17:46:46.161Z,12.65
2022-10-22T17:49:15.479Z,12.66
2022-10-22T17:51:41.961Z,12.73
2022-10-22T17:54:09.980Z,12.76
2022-10-22T17:56:37.686Z,12.70
2022-10-22T17:59:04.333Z,12.51
2022-10-22T18:01:31.827Z,12.54
2022-10-22T18:04:02.837Z,12.32
2022-10-22T18:06:30.017Z,12.32
2022-10-22T18:08:57.032Z,12.18
2022-10-22T18:11:24.756Z,12.05
2022-10-22T18:13:52.080Z,12.16
2022-10-22T18:16:19.170Z,12.13
2022-10-22T18:18:47.484Z,11.95
2022-10-22T18:21:14.934Z,12.04
2022-10-22T18:23:41.542Z,12.02
2022-10-22T18:26:07.995Z,11.92
2022-10-22T18:28:34.923Z,11.96
2022-10-22T18:31:04.990Z,11.89
2022-10-22T18:33:31.369Z,11.87
2022-10-22T18:36:02.496Z,11.83
2022-10-22T18:38:28.854Z,11.82
2022-10-22T18:40:55.216Z,11.79
2022-10-22T18:43:21.573Z,11.78
2022-10-22T18:45:48.330Z,11.72
2022-10-22T18:48:18.726Z,11.52
2022-10-22T18:50:45.353Z,11.60
2022-10-22T18:53:12.607Z,11.71
2022-10-22T18:55:44.059Z,11.67
2022-10-22T18:58:10.435Z,11.70
2022-10-22T19:00:36.905Z,11.80
2022-10-22T19:03:05.923Z,11.42
2022-10-22T19:05:34.809Z,11.33
2022-10-22T19:08:03.750Z,11.31
2022-10-22T19:10:30.119Z,11.33
2022-10-22T19:12:56.563Z,11.35
2022-10-22T19:17:57.504Z,11.47
2022-10-22T19:20:23.922Z,11.14
2022-10-22T19:22:50.261Z,11.28
2022-10-22T19:25:16.675Z,11.18
2022-10-22T19:27:43.435Z,11.18
2022-10-22T19:30:10.439Z,11.04
2022-10-22T19:32:36.876Z,11.05
2022-10-22T19:35:08.163Z,11.07
2022-10-22T19:37:40.185Z,11.01
2022-10-22T19:40:07.499Z,10.97
2022-10-22T19:42:34.212Z,11.06
2022-10-22T19:45:02.925Z,11.09
2022-10-22T19:47:29.294Z,11.07
2022-10-22T19:49:58.294Z,10.98
2022-10-22T19:52:24.744Z,11.04
2022-10-22T19:54:51.154Z,10.90
2022-10-22T19:57:18.360Z,10.88
2022-10-22T19:59:45.202Z,10.69
2022-10-22T20:02:18.095Z,10.80
2022-10-22T20:04:49.116Z,10.82
2022-10-22T20:07:16.364Z,10.82
2022-10-22T20:09:42.743Z,10.82
2022-10-22T20:12:09.253Z,10.73
2022-10-22T20:14:35.756Z,10.73
2022-10-22T20:17:02.125Z,10.59
2022-10-22T20:19:29.334Z,10.63
2022-10-22T20:21:55.795Z,10.60
2022-10-22T20:24:22.178Z,10.58
2022-10-22T20:26:48.632Z,10.69
2022-10-22T20:29:15.916Z,10.72
2022-10-22T20:31:42.263Z,10.46
2022-10-22T20:34:09.220Z,10.59
2022-10-22T20:36:35.638Z,10.59
2022-10-22T20:39:09.094Z,10.47
2022-10-22T20:41:37.777Z,10.45
2022-10-22T20:44:04.265Z,10.40
2022-10-22T20:46:31.683Z,10.42
2022-10-22T20:49:03.162Z,10.45
2022-10-22T20:51:29.518Z,10.32
2022-10-22T20:53:58.406Z,10.30
2022-10-22T20:56:25.184Z,10.29
2022-10-22T20:58:56.597Z,10.33
2022-10-22T21:01:28.402Z,10.15
2022-10-22T21:03:57.247Z,10.00
2022-10-22T21:06:23.684Z,10.22
2022-10-22T21:08:50.725Z,10.01
2022-10-22T21:11:17.759Z,10.00
2022-10-22T21:13:44.218Z,10.08
2022-10-22T21:16:11.795Z,10.04
2022-10-22T21:18:38.216Z,10.01
2022-10-22T21:21:05.678Z,10.02
2022-10-22T21:23:35.328Z,9.87
2022-10-22T21:26:02.041Z,9.98
2022-10-22T21:30:54.790Z,10.12
2022-10-22T21:33:21.114Z,10.10
2022-10-22T21:35:54.918Z,10.12
2022-10-22T21:38:22.037Z,9.98
2022-10-22T21:40:48.458Z,9.95
2022-10-22T21:43:18.146Z,9.96
2022-10-22T21:45:45.087Z,9.99
2022-10-22T21:48:16.917Z,9.95
2022-10-22T21:50:44.002Z,9.88
2022-10-22T21:53:14.340Z,9.86
2022-10-22T21:55:41.154Z,9.65
2022-10-22T21:58:08.137Z,9.75
2022-10-22T22:00:37.167Z,9.68
2022-10-22T22:03:03.652Z,9.84
2022-10-22T22:05:29.989Z,9.95
2022-10-22T22:07:56.468Z,9.83
2022-10-22T22:10:22.924Z,9.77
2022-10-22T22:12:50.580Z,9.55
2022-10-22T22:15:16.955Z,9.50
2022-10-22T22:17:43.371Z,9.47
2022-10-22T22:20:10.935Z,9.61
2022-10-22T22:22:40.011Z,9.53
2022-10-22T22:25:06.687Z,9.56
2022-10-22T22:27:35.541Z,9.52
2022-10-22T22:30:01.901Z,9.49
2022-10-22T22:32:28.227Z,9.37
2022-10-22T22:34:54.551Z,9.25
2022-10-22T22:37:20.891Z,9.27
2022-10-22T22:42:15.972Z,9.52
2022-10-22T22:44:42.259Z,9.45
2022-10-22T22:47:08.613Z,9.40
2022-10-22T22:49:36.184Z,9.34
2022-10-22T22:52:03.056Z,9.34
2022-10-22T22:54:29.632Z,9.28
2022-10-22T22:56:55.978Z,9.24
2022-10-22T22:59:22.315Z,9.16
2022-10-22T23:01:49.598Z,9.19
2022-10-22T23:04:19.294Z,9.14
2022-10-22T23:06:46.044Z,9.10
2022-10-22T23:09:13.698Z,9.05
2022-10-22T23:11:40.991Z,8.99
2022-10-22T23:14:08.207Z,9.00
2022-10-22T23:16:36.649Z,8.94
2022-10-22T23:19:03.407Z,9.03
2022-10-22T23:21:31.374Z,9.02
2022-10-22T23:23:59.336Z,8.97
2022-10-22T23:26:29.502Z,9.13
2022-10-22T23:29:01.752Z,9.06
2022-10-22T23:31:28.077Z,9.09
2022-10-22T23:33:54.457Z,9.11
2022-10-22T23:36:20.816Z,9.14
2022-10-22T23:38:47.424Z,9.09
2022-10-22T23:41:13.776Z,9.16
2022-10-22T23:43:43.000Z,8.91
2022-10-22T23:46:10.315Z,8.89
2022-10-22T23:48:37.074Z,8.89
2022-10-22T23:51:04.321Z,8.82
2022-10-22T23:53:30.757Z,8.75
2022-10-22T23:55:57.051Z,8.81
2022-10-22T23:58:23.358Z,8.75
